sensor_id;sensor_type;location;lat;lon;timestamp;pressure;altitude;pressure_sealevel;temperature;humidity
62864;BME280;48954;59.950;11.014;2023-03-03T01:54:06;100329.71;;;-3.14;57.62
62864;BME280;48954;59.950;11.014;2023-03-03T02:38:28;100300.95;;;-3.16;56.93
62864;BME280;48954;59.950;11.014;2023-03-03T02:41:49;100292.04;;;-3.20;56.77
62864;BME280;48954;59.950;11.014;2023-03-03T02:45:09;100285.96;;;-3.24;57.14
62864;BME280;48954;59.950;11.014;2023-03-03T02:48:32;100282.41;;;-3.31;57.24
62864;BME280;48954;59.950;11.014;2023-03-03T02:51:38;100279.77;;;-3.39;57.53
62864;BME280;48954;59.950;11.014;2023-03-03T02:54:58;100282.00;;;-3.45;57.65
62864;BME280;48954;59.950;11.014;2023-03-03T02:58:29;100281.02;;;-3.47;57.61
62864;BME280;48954;59.950;11.014;2023-03-03T03:01:52;100267.34;;;-3.48;57.72
62864;BME280;48954;59.950;11.014;2023-03-03T03:05:16;100258.27;;;-3.47;58.03
62864;BME280;48954;59.950;11.014;2023-03-03T03:08:49;100262.13;;;-3.48;57.90
62864;BME280;48954;59.950;11.014;2023-03-03T03:12:32;100258.40;;;-3.49;57.95
62864;BME280;48954;59.950;11.014;2023-03-03T03:15:35;100258.55;;;-3.53;58.25
62864;BME280;48954;59.950;11.014;2023-03-03T05:55:55;100070.10;;;-3.83;61.41
62864;BME280;48954;59.950;11.014;2023-03-03T05:58:56;100062.94;;;-3.79;61.65
62864;BME280;48954;59.950;11.014;2023-03-03T06:01:50;100054.77;;;-3.76;61.41
62864;BME280;48954;59.950;11.014;2023-03-03T06:05:08;100055.11;;;-3.74;61.40
62864;BME280;48954;59.950;11.014;2023-03-03T06:07:49;100050.98;;;-3.73;61.70
62864;BME280;48954;59.950;11.014;2023-03-03T06:10:17;100045.34;;;-3.72;61.89
62864;BME280;48954;59.950;11.014;2023-03-03T06:12:43;100041.60;;;-3.70;61.63
62864;BME280;48954;59.950;11.014;2023-03-03T06:15:11;100033.02;;;-3.67;62.01
62864;BME280;48954;59.950;11.014;2023-03-03T06:17:38;100033.42;;;-3.63;61.65
62864;BME280;48954;59.950;11.014;2023-03-03T06:20:06;100034.33;;;-3.56;61.80
62864;BME280;48954;59.950;11.014;2023-03-03T06:22:41;100029.46;;;-3.51;61.69
62864;BME280;48954;59.950;11.014;2023-03-03T06:25:12;100029.65;;;-3.46;61.56
62864;BME280;48954;59.950;11.014;2023-03-03T06:27:38;100022.89;;;-3.43;61.42
62864;BME280;48954;59.950;11.014;2023-03-03T06:30:05;100019.30;;;-3.44;61.29
62864;BME280;48954;59.950;11.014;2023-03-03T06:32:39;100022.48;;;-3.42;61.47
62864;BME280;48954;59.950;11.014;2023-03-03T06:35:20;100028.28;;;-3.42;61.36
62864;BME280;48954;59.950;11.014;2023-03-03T06:37:46;100036.80;;;-3.40;61.31
62864;BME280;48954;59.950;11.014;2023-03-03T06:40:16;100041.27;;;-3.39;61.46
62864;BME280;48954;59.950;11.014;2023-03-03T06:42:43;100038.91;;;-3.38;61.63
62864;BME280;48954;59.950;11.014;2023-03-03T06:45:15;100032.39;;;-3.36;61.88
62864;BME280;48954;59.950;11.014;2023-03-03T06:47:41;100027.51;;;-3.35;61.47
62864;BME280;48954;59.950;11.014;2023-03-03T06:50:10;100026.44;;;-3.32;61.84
62864;BME280;48954;59.950;11.014;2023-03-03T06:52:42;100022.64;;;-3.30;61.67
62864;BME280;48954;59.950;11.014;2023-03-03T06:55:21;100018.36;;;-3.27;61.41
62864;BME280;48954;59.950;11.014;2023-03-03T06:57:48;100018.80;;;-3.25;61.43
62864;BME280;48954;59.950;11.014;2023-03-03T07:00:25;100020.10;;;-3.20;61.56
62864;BME280;48954;59.950;11.014;2023-03-03T07:03:07;100016.14;;;-3.16;61.68
62864;BME280;48954;59.950;11.014;2023-03-03T07:05:38;100011.27;;;-3.13;61.92
62864;BME280;48954;59.950;11.014;2023-03-03T07:08:15;100009.05;;;-3.11;61.88
62864;BME280;48954;59.950;11.014;2023-03-03T07:10:44;100002.66;;;-3.07;61.89
62864;BME280;48954;59.950;11.014;2023-03-03T07:13:26;99999.77;;;-3.04;61.55
62864;BME280;48954;59.950;11.014;2023-03-03T07:15:55;99998.13;;;-2.99;61.76
62864;BME280;48954;59.950;11.014;2023-03-03T07:18:34;99993.66;;;-2.94;61.62
62864;BME280;48954;59.950;11.014;2023-03-03T07:21:12;99983.84;;;-2.89;61.61
62864;BME280;48954;59.950;11.014;2023-03-03T07:23:40;99979.52;;;-2.84;61.52
62864;BME280;48954;59.950;11.014;2023-03-03T07:26:30;99976.38;;;-2.78;61.31
62864;BME280;48954;59.950;11.014;2023-03-03T07:29:03;99980.85;;;-2.72;61.40
62864;BME280;48954;59.950;11.014;2023-03-03T07:31:39;99980.92;;;-2.65;61.42
62864;BME280;48954;59.950;11.014;2023-03-03T07:34:39;99977.71;;;-2.60;61.16
62864;BME280;48954;59.950;11.014;2023-03-03T07:37:38;99983.95;;;-2.53;61.13
62864;BME280;48954;59.950;11.014;2023-03-03T07:40:48;99975.34;;;-2.46;61.31
62864;BME280;48954;59.950;11.014;2023-03-03T07:42:56;99966.02;;;-2.40;61.31
62864;BME280;48954;59.950;11.014;2023-03-03T07:45:30;99963.61;;;-2.34;61.40
62864;BME280;48954;59.950;11.014;2023-03-03T07:48:33;99960.27;;;-2.28;61.61
62864;BME280;48954;59.950;11.014;2023-03-03T07:51:38;99967.38;;;-2.19;61.08
62864;BME280;48954;59.950;11.014;2023-03-03T07:54:26;99968.72;;;-2.14;61.68
62864;BME280;48954;59.950;11.014;2023-03-03T07:56:57;99970.98;;;-2.12;61.84
62864;BME280;48954;59.950;11.014;2023-03-03T07:59:27;99965.98;;;-2.11;62.04
62864;BME280;48954;59.950;11.014;2023-03-03T08:01:55;99962.68;;;-2.08;61.75
62864;BME280;48954;59.950;11.014;2023-03-03T08:04:27;99960.64;;;-2.07;61.79
62864;BME280;48954;59.950;11.014;2023-03-03T08:06:59;99958.27;;;-2.07;61.87
62864;BME280;48954;59.950;11.014;2023-03-03T08:12:27;99936.70;;;-2.01;61.90
62864;BME280;48954;59.950;11.014;2023-03-03T08:15:20;99934.42;;;-2.01;62.16
62864;BME280;48954;59.950;11.014;2023-03-03T08:17:51;99926.94;;;-1.99;61.70
62864;BME280;48954;59.950;11.014;2023-03-03T08:20:42;99919.37;;;-1.94;61.65
62864;BME280;48954;59.950;11.014;2023-03-03T08:23:15;99915.38;;;-1.91;61.31
62864;BME280;48954;59.950;11.014;2023-03-03T08:25:46;99917.95;;;-1.86;60.99
62864;BME280;48954;59.950;11.014;2023-03-03T08:28:16;99908.77;;;-1.80;60.89
62864;BME280;48954;59.950;11.014;2023-03-03T08:30:45;99913.94;;;-1.72;60.91
62864;BME280;48954;59.950;11.014;2023-03-03T08:33:13;99917.46;;;-1.65;60.61
62864;BME280;48954;59.950;11.014;2023-03-03T08:35:40;99912.65;;;-1.58;60.36
62864;BME280;48954;59.950;11.014;2023-03-03T08:38:12;99908.45;;;-1.50;60.22
62864;BME280;48954;59.950;11.014;2023-03-03T08:40:38;99905.58;;;-1.44;59.84
62864;BME280;48954;59.950;11.014;2023-03-03T08:43:07;99899.66;;;-1.38;59.81
62864;BME280;48954;59.950;11.014;2023-03-03T08:45:37;99896.41;;;-1.32;59.55
62864;BME280;48954;59.950;11.014;2023-03-03T08:48:13;99891.02;;;-1.27;59.30
62864;BME280;48954;59.950;11.014;2023-03-03T08:50:51;99882.10;;;-1.22;59.04
62864;BME280;48954;59.950;11.014;2023-03-03T08:53:27;99886.31;;;-1.15;58.76
62864;BME280;48954;59.950;11.014;2023-03-03T08:59:11;99871.27;;;-1.01;58.89
62864;BME280;48954;59.950;11.014;2023-03-03T09:01:37;99862.76;;;-0.93;58.49
62864;BME280;48954;59.950;11.014;2023-03-03T09:04:03;99859.45;;;-0.86;58.52
62864;BME280;48954;59.950;11.014;2023-03-03T09:06:29;99853.42;;;-0.81;58.38
62864;BME280;48954;59.950;11.014;2023-03-03T09:08:57;99847.81;;;-0.76;58.46
62864;BME280;48954;59.950;11.014;2023-03-03T09:11:26;99841.63;;;-0.71;57.94
62864;BME280;48954;59.950;11.014;2023-03-03T09:14:01;99842.63;;;-0.67;58.35
62864;BME280;48954;59.950;11.014;2023-03-03T09:16:36;99846.35;;;-0.62;58.14
62864;BME280;48954;59.950;11.014;2023-03-03T09:21:47;99840.49;;;-0.47;58.04
62864;BME280;48954;59.950;11.014;2023-03-03T09:24:29;99840.83;;;-0.41;57.92
62864;BME280;48954;59.950;11.014;2023-03-03T09:26:57;99829.40;;;-0.34;57.89
62864;BME280;48954;59.950;11.014;2023-03-03T09:29:34;99823.95;;;-0.29;57.38
62864;BME280;48954;59.950;11.014;2023-03-03T09:34:42;99821.35;;;-0.18;57.01
62864;BME280;48954;59.950;11.014;2023-03-03T09:37:21;99814.84;;;-0.12;57.04
62864;BME280;48954;59.950;11.014;2023-03-03T09:39:53;99806.77;;;-0.06;57.48
62864;BME280;48954;59.950;11.014;2023-03-03T09:42:57;99809.02;;;0.02;57.51
62864;BME280;48954;59.950;11.014;2023-03-03T09:45:40;99819.04;;;0.11;57.44
62864;BME280;48954;59.950;11.014;2023-03-03T09:48:34;99817.84;;;0.18;57.69
62864;BME280;48954;59.950;11.014;2023-03-03T09:51:11;99805.98;;;0.24;57.80
62864;BME280;48954;59.950;11.014;2023-03-03T09:56:48;99806.55;;;0.36;57.17
62864;BME280;48954;59.950;11.014;2023-03-03T10:04:43;99784.63;;;0.51;56.78
62864;BME280;48954;59.950;11.014;2023-03-03T10:07:38;99778.98;;;0.56;56.73
62864;BME280;48954;59.950;11.014;2023-03-03T10:18:46;99740.48;;;0.82;55.45
62864;BME280;48954;59.950;11.014;2023-03-03T10:21:23;99734.44;;;0.88;55.48
62864;BME280;48954;59.950;11.014;2023-03-03T10:24:13;99730.73;;;0.95;55.09
62864;BME280;48954;59.950;11.014;2023-03-03T10:32:26;99706.71;;;1.12;55.38
62864;BME280;48954;59.950;11.014;2023-03-03T10:35:10;99695.41;;;1.19;54.89
62864;BME280;48954;59.950;11.014;2023-03-03T10:40:37;99684.63;;;1.29;54.55
62864;BME280;48954;59.950;11.014;2023-03-03T10:51:39;99656.83;;;1.48;54.45
62864;BME280;48954;59.950;11.014;2023-03-03T10:54:38;99650.59;;;1.51;54.21
62864;BME280;48954;59.950;11.014;2023-03-03T10:57:16;99647.18;;;1.54;54.34
62864;BME280;48954;59.950;11.014;2023-03-03T11:00:02;99636.64;;;1.57;54.36
62864;BME280;48954;59.950;11.014;2023-03-03T11:02:41;99630.54;;;1.64;54.31
62864;BME280;48954;59.950;11.014;2023-03-03T11:05:19;99622.95;;;1.71;54.26
62864;BME280;48954;59.950;11.014;2023-03-03T11:07:56;99619.98;;;1.79;54.13
62864;BME280;48954;59.950;11.014;2023-03-03T11:10:34;99620.65;;;1.83;53.91
62864;BME280;48954;59.950;11.014;2023-03-03T11:16:01;99607.34;;;1.89;54.06
62864;BME280;48954;59.950;11.014;2023-03-03T11:18:36;99599.91;;;1.93;53.91
62864;BME280;48954;59.950;11.014;2023-03-03T11:29:43;99566.98;;;2.27;52.51
62864;BME280;48954;59.950;11.014;2023-03-03T11:35:21;99553.66;;;2.58;51.71
62864;BME280;48954;59.950;11.014;2023-03-03T11:37:58;99547.83;;;2.73;51.09
62864;BME280;48954;59.950;11.014;2023-03-03T11:43:14;99543.21;;;2.99;50.20
62864;BME280;48954;59.950;11.014;2023-03-03T11:45:52;99537.24;;;3.12;49.74
62864;BME280;48954;59.950;11.014;2023-03-03T11:48:50;99530.09;;;3.25;49.47
62864;BME280;48954;59.950;11.014;2023-03-03T11:56:59;99532.42;;;3.65;48.58
62864;BME280;48954;59.950;11.014;2023-03-03T12:03:12;99525.17;;;3.88;48.08
62864;BME280;48954;59.950;11.014;2023-03-03T12:17:00;99502.85;;;4.64;46.60
62864;BME280;48954;59.950;11.014;2023-03-03T12:25:13;99486.86;;;5.17;46.23
62864;BME280;48954;59.950;11.014;2023-03-03T12:28:02;99484.17;;;5.32;46.10
62864;BME280;48954;59.950;11.014;2023-03-03T12:36:39;99482.27;;;5.76;45.26
62864;BME280;48954;59.950;11.014;2023-03-03T12:42:19;99469.64;;;5.72;45.07
62864;BME280;48954;59.950;11.014;2023-03-03T12:45:35;99453.33;;;5.67;44.68
62864;BME280;48954;59.950;11.014;2023-03-03T12:47:45;99447.06;;;5.67;44.95
62864;BME280;48954;59.950;11.014;2023-03-03T12:56:09;99421.55;;;5.92;45.10
62864;BME280;48954;59.950;11.014;2023-03-03T13:03:44;99395.20;;;6.26;44.23
62864;BME280;48954;59.950;11.014;2023-03-03T13:06:21;99391.26;;;6.34;44.41
62864;BME280;48954;59.950;11.014;2023-03-03T13:11:40;99377.91;;;6.51;43.94
62864;BME280;48954;59.950;11.014;2023-03-03T13:22:34;99341.77;;;6.75;43.26
62864;BME280;48954;59.950;11.014;2023-03-03T13:27:47;99334.90;;;6.75;43.10
62864;BME280;48954;59.950;11.014;2023-03-03T13:32:53;99330.23;;;6.66;43.55
62864;BME280;48954;59.950;11.014;2023-03-03T13:38:20;99342.23;;;6.71;43.63
62864;BME280;48954;59.950;11.014;2023-03-03T13:41:01;99342.03;;;6.76;43.44
62864;BME280;48954;59.950;11.014;2023-03-03T13:43:36;99347.27;;;6.90;43.23
62864;BME280;48954;59.950;11.014;2023-03-03T13:46:07;99355.68;;;6.94;43.08
62864;BME280;48954;59.950;11.014;2023-03-03T13:51:18;99359.52;;;6.87;43.06
62864;BME280;48954;59.950;11.014;2023-03-03T14:02:28;99320.55;;;7.49;42.16
62864;BME280;48954;59.950;11.014;2023-03-03T14:05:15;99316.63;;;7.57;42.50
62864;BME280;48954;59.950;11.014;2023-03-03T14:11:04;99300.80;;;7.44;42.69
62864;BME280;48954;59.950;11.014;2023-03-03T14:13:43;99288.44;;;7.30;42.83
62864;BME280;48954;59.950;11.014;2023-03-03T14:16:20;99276.58;;;7.22;42.70
62864;BME280;48954;59.950;11.014;2023-03-03T14:19:36;99271.51;;;7.25;42.89
62864;BME280;48954;59.950;11.014;2023-03-03T14:22:18;99262.90;;;7.72;42.65
62864;BME280;48954;59.950;11.014;2023-03-03T14:28:08;99261.92;;;8.97;41.22
62864;BME280;48954;59.950;11.014;2023-03-03T14:30:40;99257.95;;;9.77;40.26
62864;BME280;48954;59.950;11.014;2023-03-03T14:35:38;99256.14;;;12.11;38.91
62864;BME280;48954;59.950;11.014;2023-03-03T14:40:35;99255.41;;;13.65;36.89
62864;BME280;48954;59.950;11.014;2023-03-03T14:43:04;99247.86;;;14.41;36.03
62864;BME280;48954;59.950;11.014;2023-03-03T14:45:38;99249.29;;;14.89;35.23
62864;BME280;48954;59.950;11.014;2023-03-03T14:48:19;99240.68;;;15.04;34.88
62864;BME280;48954;59.950;11.014;2023-03-03T14:50:58;99237.70;;;14.98;34.29
62864;BME280;48954;59.950;11.014;2023-03-03T14:53:34;99230.54;;;14.07;34.44
62864;BME280;48954;59.950;11.014;2023-03-03T14:56:16;99232.29;;;12.57;35.32
62864;BME280;48954;59.950;11.014;2023-03-03T14:58:45;99223.18;;;11.47;36.10
62864;BME280;48954;59.950;11.014;2023-03-03T15:01:22;99219.30;;;10.70;36.62
62864;BME280;48954;59.950;11.014;2023-03-03T15:12:02;99209.83;;;9.09;38.39
62864;BME280;48954;59.950;11.014;2023-03-03T15:15:16;99198.52;;;9.84;37.93
62864;BME280;48954;59.950;11.014;2023-03-03T15:23:04;99174.11;;;12.24;35.90
62864;BME280;48954;59.950;11.014;2023-03-03T15:25:38;99180.42;;;12.28;35.40
62864;BME280;48954;59.950;11.014;2023-03-03T15:28:31;99173.23;;;11.82;35.42
62864;BME280;48954;59.950;11.014;2023-03-03T15:36:30;99179.41;;;9.18;37.98
62864;BME280;48954;59.950;11.014;2023-03-03T15:42:23;99177.44;;;8.23;38.90
62864;BME280;48954;59.950;11.014;2023-03-03T15:44:59;99170.25;;;7.89;39.52
62864;BME280;48954;59.950;11.014;2023-03-03T15:47:42;99177.45;;;7.64;40.04
62864;BME280;48954;59.950;11.014;2023-03-03T15:53:03;99173.30;;;7.17;41.11
62864;BME280;48954;59.950;11.014;2023-03-03T15:55:46;99172.98;;;7.00;41.33
62864;BME280;48954;59.950;11.014;2023-03-03T15:58:40;99176.21;;;6.84;41.87
62864;BME280;48954;59.950;11.014;2023-03-03T16:01:32;99167.30;;;6.69;42.29
62864;BME280;48954;59.950;11.014;2023-03-03T16:04:03;99157.41;;;6.57;42.51
62864;BME280;48954;59.950;11.014;2023-03-03T16:06:44;99162.11;;;6.49;42.56
62864;BME280;48954;59.950;11.014;2023-03-03T16:12:25;99152.43;;;6.52;42.99
62864;BME280;48954;59.950;11.014;2023-03-03T16:18:18;99158.41;;;6.47;43.38
62864;BME280;48954;59.950;11.014;2023-03-03T16:23:31;99173.08;;;6.40;43.65
62864;BME280;48954;59.950;11.014;2023-03-03T16:26:09;99168.36;;;6.39;43.59
62864;BME280;48954;59.950;11.014;2023-03-03T16:28:43;99170.02;;;6.37;43.80
62864;BME280;48954;59.950;11.014;2023-03-03T16:31:33;99172.29;;;6.37;43.77
62864;BME280;48954;59.950;11.014;2023-03-03T16:40:08;99178.02;;;6.40;43.86
62864;BME280;48954;59.950;11.014;2023-03-03T16:42:38;99182.80;;;6.33;44.06
62864;BME280;48954;59.950;11.014;2023-03-03T16:50:45;99190.31;;;6.08;44.65
62864;BME280;48954;59.950;11.014;2023-03-03T16:53:51;99195.35;;;5.97;44.83
62864;BME280;48954;59.950;11.014;2023-03-03T16:56:22;99194.17;;;5.90;45.03
62864;BME280;48954;59.950;11.014;2023-03-03T16:59:28;99196.54;;;5.86;45.12
62864;BME280;48954;59.950;11.014;2023-03-03T17:02:06;99199.11;;;5.79;45.25
62864;BME280;48954;59.950;11.014;2023-03-03T17:04:44;99199.36;;;5.73;45.24
62864;BME280;48954;59.950;11.014;2023-03-03T17:10:14;99205.94;;;5.66;45.20
62864;BME280;48954;59.950;11.014;2023-03-03T17:12:56;99207.38;;;5.62;45.31
62864;BME280;48954;59.950;11.014;2023-03-03T17:15:38;99213.17;;;5.62;45.27
62864;BME280;48954;59.950;11.014;2023-03-03T17:20:59;99217.71;;;5.57;45.20
62864;BME280;48954;59.950;11.014;2023-03-03T17:23:30;99222.70;;;5.50;45.45
62864;BME280;48954;59.950;11.014;2023-03-03T17:34:48;99240.17;;;5.04;46.01
62864;BME280;48954;59.950;11.014;2023-03-03T17:37:37;99244.04;;;4.92;46.27
62864;BME280;48954;59.950;11.014;2023-03-03T17:43:16;99249.45;;;4.64;46.69
62864;BME280;48954;59.950;11.014;2023-03-03T17:45:46;99253.59;;;4.50;46.79
62864;BME280;48954;59.950;11.014;2023-03-03T17:48:40;99253.58;;;4.38;46.99
62864;BME280;48954;59.950;11.014;2023-03-03T17:51:23;99261.32;;;4.24;47.31
62864;BME280;48954;59.950;11.014;2023-03-03T17:54:21;99261.77;;;4.14;47.58
62864;BME280;48954;59.950;11.014;2023-03-03T17:57:03;99270.08;;;4.05;47.81
62864;BME280;48954;59.950;11.014;2023-03-03T18:08:17;99284.19;;;3.70;49.02
62864;BME280;48954;59.950;11.014;2023-03-03T18:11:12;99289.94;;;3.60;49.22
62864;BME280;48954;59.950;11.014;2023-03-03T18:21:42;99315.69;;;3.31;50.15
62864;BME280;48954;59.950;11.014;2023-03-03T18:31:00;99317.36;;;3.19;50.84
62864;BME280;48954;59.950;11.014;2023-03-03T18:33:40;99320.40;;;3.17;50.36
62864;BME280;48954;59.950;11.014;2023-03-03T18:38:57;99326.67;;;3.15;50.13
62864;BME280;48954;59.950;11.014;2023-03-03T18:41:28;99334.79;;;3.14;49.76
62864;BME280;48954;59.950;11.014;2023-03-03T18:49:05;99346.14;;;3.05;50.00
62864;BME280;48954;59.950;11.014;2023-03-03T19:04:54;99370.04;;;2.76;49.55
62864;BME280;48954;59.950;11.014;2023-03-03T19:13:37;99371.02;;;2.59;49.10
62864;BME280;48954;59.950;11.014;2023-03-03T19:16:11;99369.98;;;2.52;49.19
62864;BME280;48954;59.950;11.014;2023-03-03T19:23:49;99368.08;;;2.31;49.15
62864;BME280;48954;59.950;11.014;2023-03-03T19:31:32;99374.63;;;2.12;49.09
62864;BME280;48954;59.950;11.014;2023-03-03T19:34:21;99372.80;;;2.03;49.74
62864;BME280;48954;59.950;11.014;2023-03-03T19:39:48;99391.72;;;1.79;50.10
62864;BME280;48954;59.950;11.014;2023-03-03T19:42:37;99380.41;;;1.65;49.99
62864;BME280;48954;59.950;11.014;2023-03-03T19:48:18;99388.58;;;1.48;49.93
62864;BME280;48954;59.950;11.014;2023-03-03T19:50:54;99385.16;;;1.41;49.59
62864;BME280;48954;59.950;11.014;2023-03-03T19:56:13;99392.66;;;1.31;49.51
62864;BME280;48954;59.950;11.014;2023-03-03T19:59:15;99393.29;;;1.25;50.01
62864;BME280;48954;59.950;11.014;2023-03-03T20:05:26;99402.48;;;1.09;50.25
62864;BME280;48954;59.950;11.014;2023-03-03T20:14:21;99412.83;;;1.12;49.78
62864;BME280;48954;59.950;11.014;2023-03-03T20:16:52;99417.40;;;1.20;49.22
62864;BME280;48954;59.950;11.014;2023-03-03T20:22:16;99426.73;;;1.31;48.75
62864;BME280;48954;59.950;11.014;2023-03-03T20:27:39;99427.20;;;1.30;48.70
62864;BME280;48954;59.950;11.014;2023-03-03T20:30:35;99427.74;;;1.30;48.27
62864;BME280;48954;59.950;11.014;2023-03-03T20:33:37;99422.77;;;1.28;48.78
62864;BME280;48954;59.950;11.014;2023-03-03T20:39:12;99428.77;;;1.20;48.51
62864;BME280;48954;59.950;11.014;2023-03-03T20:42:01;99428.95;;;1.22;48.00
62864;BME280;48954;59.950;11.014;2023-03-03T20:50:26;99422.27;;;1.35;47.97
62864;BME280;48954;59.950;11.014;2023-03-03T20:56:19;99427.00;;;1.39;47.51
62864;BME280;48954;59.950;11.014;2023-03-03T20:59:08;99429.61;;;1.41;47.23
62864;BME280;48954;59.950;11.014;2023-03-03T21:04:28;99431.48;;;1.35;47.42
62864;BME280;48954;59.950;11.014;2023-03-03T21:06:55;99430.39;;;1.30;47.35
62864;BME280;48954;59.950;11.014;2023-03-03T21:09:27;99431.10;;;1.26;47.20
62864;BME280;48954;59.950;11.014;2023-03-03T21:11:53;99438.44;;;1.24;47.32
62864;BME280;48954;59.950;11.014;2023-03-03T21:14:22;99441.41;;;1.22;47.26
62864;BME280;48954;59.950;11.014;2023-03-03T21:16:57;99444.86;;;1.19;47.78
62864;BME280;48954;59.950;11.014;2023-03-03T21:19:34;99444.88;;;1.13;47.28
62864;BME280;48954;59.950;11.014;2023-03-03T21:22:03;99445.23;;;1.07;47.61
62864;BME280;48954;59.950;11.014;2023-03-03T21:24:52;99448.17;;;1.01;47.33
62864;BME280;48954;59.950;11.014;2023-03-03T21:27:24;99449.52;;;0.99;47.08
62864;BME280;48954;59.950;11.014;2023-03-03T21:32:46;99460.69;;;0.93;47.44
62864;BME280;48954;59.950;11.014;2023-03-03T21:35:16;99462.88;;;0.90;47.45
62864;BME280;48954;59.950;11.014;2023-03-03T21:38:01;99461.75;;;0.86;47.54
62864;BME280;48954;59.950;11.014;2023-03-03T21:40:28;99466.06;;;0.81;47.23
62864;BME280;48954;59.950;11.014;2023-03-03T21:42:57;99460.93;;;0.76;47.09
62864;BME280;48954;59.950;11.014;2023-03-03T21:45:24;99461.35;;;0.71;47.29
62864;BME280;48954;59.950;11.014;2023-03-03T21:47:52;99461.52;;;0.67;47.33
62864;BME280;48954;59.950;11.014;2023-03-03T21:50:18;99463.88;;;0.64;47.09
62864;BME280;48954;59.950;11.014;2023-03-03T21:52:43;99464.96;;;0.61;47.19
62864;BME280;48954;59.950;11.014;2023-03-03T21:55:09;99466.44;;;0.57;47.02
62864;BME280;48954;59.950;11.014;2023-03-03T21:57:36;99465.40;;;0.54;47.27
62864;BME280;48954;59.950;11.014;2023-03-03T22:00:04;99471.58;;;0.49;47.23
62864;BME280;48954;59.950;11.014;2023-03-03T22:02:32;99474.23;;;0.45;47.06
62864;BME280;48954;59.950;11.014;2023-03-03T22:04:58;99476.24;;;0.40;46.86
62864;BME280;48954;59.950;11.014;2023-03-03T22:07:25;99478.73;;;0.33;46.98
62864;BME280;48954;59.950;11.014;2023-03-03T22:09:53;99477.61;;;0.27;47.04
62864;BME280;48954;59.950;11.014;2023-03-03T22:12:19;99477.41;;;0.23;47.36
62864;BME280;48954;59.950;11.014;2023-03-03T22:14:44;99477.05;;;0.19;47.22
62864;BME280;48954;59.950;11.014;2023-03-03T22:17:10;99475.09;;;0.13;47.08
62864;BME280;48954;59.950;11.014;2023-03-03T22:19:38;99478.63;;;0.10;47.12
62864;BME280;48954;59.950;11.014;2023-03-03T22:22:04;99476.98;;;0.05;46.78
62864;BME280;48954;59.950;11.014;2023-03-03T22:24:30;99483.27;;;-0.01;47.24
62864;BME280;48954;59.950;11.014;2023-03-03T22:26:59;99486.35;;;-0.06;46.85
62864;BME280;48954;59.950;11.014;2023-03-03T22:29:26;99484.25;;;-0.11;47.25
62864;BME280;48954;59.950;11.014;2023-03-03T22:31:57;99481.34;;;-0.12;46.73
62864;BME280;48954;59.950;11.014;2023-03-03T22:34:51;99489.35;;;-0.05;46.91
62864;BME280;48954;59.950;11.014;2023-03-03T22:37:18;99492.40;;;0.07;46.47
62864;BME280;48954;59.950;11.014;2023-03-03T22:39:44;99494.56;;;0.13;46.59
62864;BME280;48954;59.950;11.014;2023-03-03T22:42:10;99496.02;;;0.17;46.23
62864;BME280;48954;59.950;11.014;2023-03-03T22:44:36;99492.23;;;0.19;46.64
62864;BME280;48954;59.950;11.014;2023-03-03T22:47:03;99495.48;;;0.22;46.52
62864;BME280;48954;59.950;11.014;2023-03-03T22:49:30;99501.16;;;0.24;45.94
62864;BME280;48954;59.950;11.014;2023-03-03T22:51:56;99497.46;;;0.24;45.98
62864;BME280;48954;59.950;11.014;2023-03-03T22:54:24;99495.52;;;0.24;46.10
62864;BME280;48954;59.950;11.014;2023-03-03T22:57:01;99494.66;;;0.24;45.88
62864;BME280;48954;59.950;11.014;2023-03-03T22:59:30;99497.38;;;0.23;45.90
62864;BME280;48954;59.950;11.014;2023-03-03T23:01:56;99497.45;;;0.22;45.40
62864;BME280;48954;59.950;11.014;2023-03-03T23:04:24;99495.48;;;0.23;45.52
62864;BME280;48954;59.950;11.014;2023-03-03T23:06:50;99492.95;;;0.22;45.04
62864;BME280;48954;59.950;11.014;2023-03-03T23:09:17;99497.08;;;0.21;45.38
62864;BME280;48954;59.950;11.014;2023-03-03T23:11:45;99503.96;;;0.20;45.32
62864;BME280;48954;59.950;11.014;2023-03-03T23:14:14;99514.76;;;0.19;45.11
62864;BME280;48954;59.950;11.014;2023-03-03T23:16:40;99513.65;;;0.17;45.10
62864;BME280;48954;59.950;11.014;2023-03-03T23:19:10;99513.88;;;0.16;45.35
62864;BME280;48954;59.950;11.014;2023-03-03T23:21:37;99516.62;;;0.14;45.61
62864;BME280;48954;59.950;11.014;2023-03-03T23:24:06;99517.73;;;0.10;45.51
62864;BME280;48954;59.950;11.014;2023-03-03T23:26:34;99516.75;;;0.07;45.43
62864;BME280;48954;59.950;11.014;2023-03-03T23:29:05;99515.64;;;0.04;45.07
62864;BME280;48954;59.950;11.014;2023-03-03T23:31:31;99519.77;;;0.03;45.18
62864;BME280;48954;59.950;11.014;2023-03-03T23:33:59;99522.15;;;0.03;45.10
62864;BME280;48954;59.950;11.014;2023-03-03T23:36:26;99529.73;;;0.03;44.90
62864;BME280;48954;59.950;11.014;2023-03-03T23:38:57;99529.82;;;0.00;45.48
62864;BME280;48954;59.950;11.014;2023-03-03T23:41:25;99536.55;;;-0.04;45.25
62864;BME280;48954;59.950;11.014;2023-03-03T23:43:57;99536.91;;;-0.06;45.30
62864;BME280;48954;59.950;11.014;2023-03-03T23:46:23;99542.14;;;-0.10;45.08
62864;BME280;48954;59.950;11.014;2023-03-03T23:48:50;99543.15;;;-0.13;44.93
62864;BME280;48954;59.950;11.014;2023-03-03T23:51:16;99543.98;;;-0.13;45.17
62864;BME280;48954;59.950;11.014;2023-03-03T23:53:42;99544.95;;;-0.15;45.17
62864;BME280;48954;59.950;11.014;2023-03-03T23:56:09;99546.98;;;-0.17;44.92
62864;BME280;48954;59.950;11.014;2023-03-03T23:58:35;99550.14;;;-0.20;45.03
